sensor_id;sensor_type;location;lat;lon;timestamp;pressure;altitude;pressure_sealevel;temperature;humidity
10921;BME280;5513;50.580;8.818;2023-09-18T00:00:53;98405.22;;;20.52;100.00
10921;BME280;5513;50.580;8.818;2023-09-18T00:03:41;98411.53;;;20.36;100.00
10921;BME280;5513;50.580;8.818;2023-09-18T00:06:28;98415.97;;;20.29;100.00
10921;BME280;5513;50.580;8.818;2023-09-18T00:09:17;98410.88;;;20.34;100.00
10921;BME280;5513;50.580;8.818;2023-09-18T00:12:04;98413.50;;;20.50;100.00
10921;BME280;5513;50.580;8.818;2023-09-18T00:14:52;98401.53;;;20.53;100.00
10921;BME280;5513;50.580;8.818;2023-09-18T00:17:39;98383.69;;;20.75;100.00
10921;BME280;5513;50.580;8.818;2023-09-18T00:20:25;98371.28;;;20.89;100.00
10921;BME280;5513;50.580;8.818;2023-09-18T00:23:12;98357.19;;;21.01;100.00
10921;BME280;5513;50.580;8.818;2023-09-18T00:26:02;98361.00;;;21.07;100.00
10921;BME280;5513;50.580;8.818;2023-09-18T00:28:48;98367.34;;;21.14;100.00
10921;BME280;5513;50.580;8.818;2023-09-18T00:31:36;98361.38;;;21.19;100.00
10921;BME280;5513;50.580;8.818;2023-09-18T00:34:23;98348.94;;;21.18;100.00
10921;BME280;5513;50.580;8.818;2023-09-18T00:37:10;98348.84;;;21.26;100.00
10921;BME280;5513;50.580;8.818;2023-09-18T00:39:58;98343.75;;;21.31;100.00
10921;BME280;5513;50.580;8.818;2023-09-18T00:42:46;98352.03;;;21.29;100.00
10921;BME280;5513;50.580;8.818;2023-09-18T00:45:33;98343.94;;;21.29;100.00
10921;BME280;5513;50.580;8.818;2023-09-18T00:48:21;98339.44;;;21.22;100.00
10921;BME280;5513;50.580;8.818;2023-09-18T00:51:08;98342.91;;;21.30;100.00
10921;BME280;5513;50.580;8.818;2023-09-18T00:53:56;98338.56;;;21.29;100.00
10921;BME280;5513;50.580;8.818;2023-09-18T00:56:42;98332.53;;;21.27;100.00
10921;BME280;5513;50.580;8.818;2023-09-18T00:59:31;98329.63;;;21.29;100.00
10921;BME280;5513;50.580;8.818;2023-09-18T01:02:19;98317.66;;;21.31;100.00
10921;BME280;5513;50.580;8.818;2023-09-18T01:05:06;98312.09;;;21.33;100.00
10921;BME280;5513;50.580;8.818;2023-09-18T01:07:53;98309.22;;;21.34;100.00
10921;BME280;5513;50.580;8.818;2023-09-18T01:10:48;98310.13;;;21.27;100.00
10921;BME280;5513;50.580;8.818;2023-09-18T01:13:46;98306.41;;;21.28;100.00
10921;BME280;5513;50.580;8.818;2023-09-18T01:16:44;98303.53;;;21.44;100.00
10921;BME280;5513;50.580;8.818;2023-09-18T01:19:37;98303.00;;;21.34;100.00
10921;BME280;5513;50.580;8.818;2023-09-18T01:25:13;98296.19;;;21.23;100.00
10921;BME280;5513;50.580;8.818;2023-09-18T01:28:00;98307.31;;;21.20;100.00
10921;BME280;5513;50.580;8.818;2023-09-18T01:34:21;98309.56;;;21.17;100.00
10921;BME280;5513;50.580;8.818;2023-09-18T01:37:12;98306.88;;;21.17;100.00
10921;BME280;5513;50.580;8.818;2023-09-18T01:40:01;98305.09;;;21.24;100.00
10921;BME280;5513;50.580;8.818;2023-09-18T01:42:53;98312.00;;;21.26;100.00
10921;BME280;5513;50.580;8.818;2023-09-18T01:45:40;98303.06;;;21.26;100.00
10921;BME280;5513;50.580;8.818;2023-09-18T01:48:28;98301.47;;;21.31;100.00
10921;BME280;5513;50.580;8.818;2023-09-18T01:51:16;98294.91;;;21.34;100.00
10921;BME280;5513;50.580;8.818;2023-09-18T01:54:04;98293.50;;;21.38;100.00
10921;BME280;5513;50.580;8.818;2023-09-18T01:56:51;98291.72;;;21.45;100.00
10921;BME280;5513;50.580;8.818;2023-09-18T01:59:39;98289.66;;;21.47;100.00
10921;BME280;5513;50.580;8.818;2023-09-18T02:02:27;98281.38;;;21.49;100.00
10921;BME280;5513;50.580;8.818;2023-09-18T02:05:26;98269.78;;;21.48;100.00
10921;BME280;5513;50.580;8.818;2023-09-18T02:08:14;98260.88;;;21.48;100.00
10921;BME280;5513;50.580;8.818;2023-09-18T02:11:01;98269.44;;;21.36;100.00
10921;BME280;5513;50.580;8.818;2023-09-18T02:13:50;98252.44;;;21.36;100.00
10921;BME280;5513;50.580;8.818;2023-09-18T02:16:39;98247.50;;;21.25;100.00
10921;BME280;5513;50.580;8.818;2023-09-18T02:19:27;98240.81;;;21.21;100.00
10921;BME280;5513;50.580;8.818;2023-09-18T02:22:14;98242.31;;;21.08;100.00
10921;BME280;5513;50.580;8.818;2023-09-18T02:25:02;98245.31;;;21.13;100.00
10921;BME280;5513;50.580;8.818;2023-09-18T02:27:48;98242.41;;;21.00;100.00
10921;BME280;5513;50.580;8.818;2023-09-18T02:30:36;98242.50;;;21.07;100.00
10921;BME280;5513;50.580;8.818;2023-09-18T02:33:25;98245.03;;;21.08;100.00
10921;BME280;5513;50.580;8.818;2023-09-18T02:36:11;98236.84;;;21.17;100.00
10921;BME280;5513;50.580;8.818;2023-09-18T02:38:58;98239.44;;;21.25;100.00
10921;BME280;5513;50.580;8.818;2023-09-18T02:41:45;98232.75;;;21.35;100.00
10921;BME280;5513;50.580;8.818;2023-09-18T02:44:32;98222.63;;;21.37;100.00
10921;BME280;5513;50.580;8.818;2023-09-18T02:47:19;98236.81;;;21.46;100.00
10921;BME280;5513;50.580;8.818;2023-09-18T02:50:08;98234.94;;;21.47;100.00
10921;BME280;5513;50.580;8.818;2023-09-18T02:52:56;98254.56;;;21.40;100.00
10921;BME280;5513;50.580;8.818;2023-09-18T02:55:45;98311.41;;;21.46;100.00
10921;BME280;5513;50.580;8.818;2023-09-18T02:58:31;98318.31;;;21.33;100.00
10921;BME280;5513;50.580;8.818;2023-09-18T03:01:18;98324.59;;;20.96;100.00
10921;BME280;5513;50.580;8.818;2023-09-18T03:04:06;98343.06;;;20.84;100.00
10921;BME280;5513;50.580;8.818;2023-09-18T03:06:54;98355.84;;;20.68;100.00
10921;BME280;5513;50.580;8.818;2023-09-18T03:09:40;98369.44;;;20.51;100.00
10921;BME280;5513;50.580;8.818;2023-09-18T03:12:27;98372.03;;;20.37;100.00
10921;BME280;5513;50.580;8.818;2023-09-18T03:15:14;98370.34;;;20.36;100.00
10921;BME280;5513;50.580;8.818;2023-09-18T03:18:03;98371.94;;;20.53;100.00
10921;BME280;5513;50.580;8.818;2023-09-18T03:20:50;98364.09;;;20.43;100.00
10921;BME280;5513;50.580;8.818;2023-09-18T03:23:38;98342.09;;;20.40;100.00
10921;BME280;5513;50.580;8.818;2023-09-18T03:26:25;98339.06;;;20.43;100.00
10921;BME280;5513;50.580;8.818;2023-09-18T03:29:13;98332.81;;;20.42;100.00
10921;BME280;5513;50.580;8.818;2023-09-18T03:32:00;98331.94;;;20.50;100.00
10921;BME280;5513;50.580;8.818;2023-09-18T03:34:50;98327.31;;;20.36;100.00
10921;BME280;5513;50.580;8.818;2023-09-18T03:37:37;98325.19;;;20.31;100.00
10921;BME280;5513;50.580;8.818;2023-09-18T03:40:25;98315.88;;;20.19;100.00
10921;BME280;5513;50.580;8.818;2023-09-18T03:43:13;98300.50;;;20.27;100.00
10921;BME280;5513;50.580;8.818;2023-09-18T03:46:03;98285.97;;;20.14;100.00
10921;BME280;5513;50.580;8.818;2023-09-18T03:48:55;98273.28;;;20.08;100.00
10921;BME280;5513;50.580;8.818;2023-09-18T03:51:44;98271.75;;;20.05;100.00
10921;BME280;5513;50.580;8.818;2023-09-18T03:54:30;98264.69;;;19.89;100.00
10921;BME280;5513;50.580;8.818;2023-09-18T03:57:19;98254.25;;;19.86;100.00
10921;BME280;5513;50.580;8.818;2023-09-18T04:00:07;98253.25;;;19.87;100.00
10921;BME280;5513;50.580;8.818;2023-09-18T04:02:57;98252.00;;;19.75;100.00
10921;BME280;5513;50.580;8.818;2023-09-18T04:05:45;98262.59;;;19.68;100.00
10921;BME280;5513;50.580;8.818;2023-09-18T04:08:32;98273.63;;;19.82;100.00
10921;BME280;5513;50.580;8.818;2023-09-18T04:11:19;98273.81;;;19.80;100.00
10921;BME280;5513;50.580;8.818;2023-09-18T04:14:12;98272.00;;;19.95;100.00
10921;BME280;5513;50.580;8.818;2023-09-18T04:17:00;98261.84;;;20.06;100.00
10921;BME280;5513;50.580;8.818;2023-09-18T04:19:47;98269.84;;;20.14;100.00
10921;BME280;5513;50.580;8.818;2023-09-18T04:22:34;98263.09;;;20.18;100.00
10921;BME280;5513;50.580;8.818;2023-09-18T04:25:21;98264.47;;;20.14;100.00
10921;BME280;5513;50.580;8.818;2023-09-18T04:28:08;98258.97;;;20.07;100.00
10921;BME280;5513;50.580;8.818;2023-09-18T04:30:56;98239.50;;;20.05;100.00
10921;BME280;5513;50.580;8.818;2023-09-18T04:33:44;98249.47;;;19.96;100.00
10921;BME280;5513;50.580;8.818;2023-09-18T04:36:31;98257.06;;;19.93;100.00
10921;BME280;5513;50.580;8.818;2023-09-18T04:39:20;98263.22;;;20.01;100.00
10921;BME280;5513;50.580;8.818;2023-09-18T04:42:07;98256.44;;;19.91;100.00
10921;BME280;5513;50.580;8.818;2023-09-18T04:44:54;98268.19;;;19.90;100.00
10921;BME280;5513;50.580;8.818;2023-09-18T04:47:42;98271.16;;;19.72;100.00
10921;BME280;5513;50.580;8.818;2023-09-18T04:50:30;98269.38;;;19.87;100.00
10921;BME280;5513;50.580;8.818;2023-09-18T04:53:17;98268.25;;;19.82;100.00
10921;BME280;5513;50.580;8.818;2023-09-18T04:56:04;98269.09;;;19.82;100.00
10921;BME280;5513;50.580;8.818;2023-09-18T04:58:50;98267.47;;;19.73;100.00
10921;BME280;5513;50.580;8.818;2023-09-18T05:01:38;98272.38;;;19.69;100.00
10921;BME280;5513;50.580;8.818;2023-09-18T05:04:26;98269.72;;;19.61;100.00
10921;BME280;5513;50.580;8.818;2023-09-18T05:07:13;98278.03;;;19.43;100.00
10921;BME280;5513;50.580;8.818;2023-09-18T05:10:00;98273.31;;;19.45;100.00
10921;BME280;5513;50.580;8.818;2023-09-18T05:12:48;98256.81;;;19.49;100.00
10921;BME280;5513;50.580;8.818;2023-09-18T05:15:36;98261.72;;;19.45;100.00
10921;BME280;5513;50.580;8.818;2023-09-18T05:18:23;98247.28;;;19.46;100.00
10921;BME280;5513;50.580;8.818;2023-09-18T05:21:11;98242.47;;;19.41;100.00
10921;BME280;5513;50.580;8.818;2023-09-18T05:23:58;98242.94;;;19.45;100.00
10921;BME280;5513;50.580;8.818;2023-09-18T05:26:44;98226.44;;;19.25;100.00
10921;BME280;5513;50.580;8.818;2023-09-18T05:29:31;98235.63;;;19.31;100.00
10921;BME280;5513;50.580;8.818;2023-09-18T05:32:18;98221.16;;;19.40;100.00
10921;BME280;5513;50.580;8.818;2023-09-18T05:35:06;98205.50;;;19.43;100.00
10921;BME280;5513;50.580;8.818;2023-09-18T05:37:57;98227.47;;;19.47;100.00
10921;BME280;5513;50.580;8.818;2023-09-18T05:40:44;98232.19;;;19.45;100.00
10921;BME280;5513;50.580;8.818;2023-09-18T05:43:31;98259.72;;;19.39;100.00
10921;BME280;5513;50.580;8.818;2023-09-18T05:46:18;98280.22;;;19.40;100.00
10921;BME280;5513;50.580;8.818;2023-09-18T05:49:05;98277.97;;;19.21;100.00
10921;BME280;5513;50.580;8.818;2023-09-18T05:51:52;98285.84;;;19.22;100.00
10921;BME280;5513;50.580;8.818;2023-09-18T05:54:41;98292.88;;;19.31;100.00
10921;BME280;5513;50.580;8.818;2023-09-18T05:57:28;98289.47;;;19.37;100.00
10921;BME280;5513;50.580;8.818;2023-09-18T06:00:14;98301.50;;;19.50;100.00
10921;BME280;5513;50.580;8.818;2023-09-18T06:03:03;98291.22;;;19.53;100.00
10921;BME280;5513;50.580;8.818;2023-09-18T06:05:52;98304.84;;;19.52;100.00
10921;BME280;5513;50.580;8.818;2023-09-18T06:08:38;98299.63;;;19.58;100.00
10921;BME280;5513;50.580;8.818;2023-09-18T06:11:27;98302.44;;;19.65;100.00
10921;BME280;5513;50.580;8.818;2023-09-18T06:14:14;98304.69;;;19.84;100.00
10921;BME280;5513;50.580;8.818;2023-09-18T06:17:01;98301.75;;;19.94;100.00
10921;BME280;5513;50.580;8.818;2023-09-18T06:19:47;98291.53;;;20.12;100.00
10921;BME280;5513;50.580;8.818;2023-09-18T06:22:35;98296.03;;;20.20;100.00
10921;BME280;5513;50.580;8.818;2023-09-18T06:25:22;98288.41;;;20.23;100.00
10921;BME280;5513;50.580;8.818;2023-09-18T06:28:11;98300.19;;;20.22;100.00
10921;BME280;5513;50.580;8.818;2023-09-18T06:30:58;98292.94;;;20.08;100.00
10921;BME280;5513;50.580;8.818;2023-09-18T06:33:45;98289.50;;;20.14;100.00
10921;BME280;5513;50.580;8.818;2023-09-18T06:36:32;98286.81;;;20.14;100.00
10921;BME280;5513;50.580;8.818;2023-09-18T06:39:19;98284.88;;;20.08;100.00
10921;BME280;5513;50.580;8.818;2023-09-18T06:42:08;98295.84;;;19.98;100.00
10921;BME280;5513;50.580;8.818;2023-09-18T06:44:56;98275.09;;;20.07;100.00
10921;BME280;5513;50.580;8.818;2023-09-18T06:47:43;98278.16;;;20.04;100.00
10921;BME280;5513;50.580;8.818;2023-09-18T06:50:29;98277.03;;;19.98;100.00
10921;BME280;5513;50.580;8.818;2023-09-18T06:53:17;98275.53;;;19.96;100.00
10921;BME280;5513;50.580;8.818;2023-09-18T06:56:04;98272.59;;;19.83;100.00
10921;BME280;5513;50.580;8.818;2023-09-18T06:58:51;98277.50;;;19.79;100.00
10921;BME280;5513;50.580;8.818;2023-09-18T07:01:40;98278.03;;;19.97;100.00
10921;BME280;5513;50.580;8.818;2023-09-18T07:04:28;98271.72;;;19.90;100.00
10921;BME280;5513;50.580;8.818;2023-09-18T07:07:15;98282.50;;;20.05;100.00
10921;BME280;5513;50.580;8.818;2023-09-18T07:10:02;98286.66;;;19.93;100.00
10921;BME280;5513;50.580;8.818;2023-09-18T07:12:50;98293.00;;;20.00;100.00
10921;BME280;5513;50.580;8.818;2023-09-18T07:15:37;98293.75;;;20.09;100.00
10921;BME280;5513;50.580;8.818;2023-09-18T07:18:25;98310.03;;;20.07;100.00
10921;BME280;5513;50.580;8.818;2023-09-18T07:21:12;98303.31;;;19.88;100.00
10921;BME280;5513;50.580;8.818;2023-09-18T07:23:59;98307.66;;;20.12;100.00
10921;BME280;5513;50.580;8.818;2023-09-18T07:26:47;98307.66;;;-144.59;100.00
10921;BME280;5513;50.580;8.818;2023-09-18T07:29:34;98311.56;;;20.10;100.00
10921;BME280;5513;50.580;8.818;2023-09-18T07:32:21;98316.75;;;20.11;100.00
10921;BME280;5513;50.580;8.818;2023-09-18T07:35:24;98314.53;;;20.15;100.00
10921;BME280;5513;50.580;8.818;2023-09-18T07:38:11;98317.97;;;20.09;100.00
10921;BME280;5513;50.580;8.818;2023-09-18T07:40:58;98300.00;;;20.24;100.00
10921;BME280;5513;50.580;8.818;2023-09-18T07:43:45;98300.56;;;20.19;100.00
10921;BME280;5513;50.580;8.818;2023-09-18T07:46:32;98312.16;;;20.20;100.00
10921;BME280;5513;50.580;8.818;2023-09-18T07:49:19;98327.50;;;20.11;100.00
10921;BME280;5513;50.580;8.818;2023-09-18T07:52:07;98337.59;;;20.32;100.00
10921;BME280;5513;50.580;8.818;2023-09-18T07:54:54;98325.88;;;20.25;100.00
10921;BME280;5513;50.580;8.818;2023-09-18T07:57:43;98327.56;;;20.26;100.00
10921;BME280;5513;50.580;8.818;2023-09-18T08:00:31;98341.69;;;20.28;100.00
10921;BME280;5513;50.580;8.818;2023-09-18T08:03:18;98340.25;;;20.17;100.00
10921;BME280;5513;50.580;8.818;2023-09-18T08:06:06;98330.19;;;20.34;100.00
10921;BME280;5513;50.580;8.818;2023-09-18T08:08:54;98319.44;;;20.34;100.00
10921;BME280;5513;50.580;8.818;2023-09-18T08:11:41;98331.28;;;20.48;100.00
10921;BME280;5513;50.580;8.818;2023-09-18T08:14:32;98328.81;;;20.38;100.00
10921;BME280;5513;50.580;8.818;2023-09-18T08:17:20;98342.59;;;20.43;100.00
10921;BME280;5513;50.580;8.818;2023-09-18T08:20:09;98339.03;;;20.66;100.00
10921;BME280;5513;50.580;8.818;2023-09-18T08:22:59;98335.16;;;20.83;100.00
10921;BME280;5513;50.580;8.818;2023-09-18T08:25:48;98326.25;;;20.82;100.00
10921;BME280;5513;50.580;8.818;2023-09-18T08:28:36;98334.38;;;21.27;100.00
10921;BME280;5513;50.580;8.818;2023-09-18T08:31:28;98331.75;;;21.48;100.00
10921;BME280;5513;50.580;8.818;2023-09-18T08:34:17;98323.97;;;21.53;100.00
10921;BME280;5513;50.580;8.818;2023-09-18T08:37:07;98322.84;;;21.48;100.00
10921;BME280;5513;50.580;8.818;2023-09-18T08:39:54;98316.13;;;21.58;100.00
10921;BME280;5513;50.580;8.818;2023-09-18T08:42:46;98331.34;;;21.66;100.00
10921;BME280;5513;50.580;8.818;2023-09-18T08:45:37;98320.72;;;21.79;100.00
10921;BME280;5513;50.580;8.818;2023-09-18T08:48:27;73595.56;;;-144.59;100.00
10921;BME280;5513;50.580;8.818;2023-09-18T08:51:21;98322.88;;;22.05;100.00
10921;BME280;5513;50.580;8.818;2023-09-18T08:54:08;98324.47;;;21.99;100.00
10921;BME280;5513;50.580;8.818;2023-09-18T08:56:56;98325.81;;;21.89;100.00
10921;BME280;5513;50.580;8.818;2023-09-18T08:59:44;98326.75;;;22.17;100.00
10921;BME280;5513;50.580;8.818;2023-09-18T09:02:32;98327.25;;;22.70;100.00
10921;BME280;5513;50.580;8.818;2023-09-18T09:05:20;98314.38;;;22.72;100.00
10921;BME280;5513;50.580;8.818;2023-09-18T09:08:07;98311.63;;;22.94;100.00
10921;BME280;5513;50.580;8.818;2023-09-18T09:10:54;98312.25;;;22.68;100.00
10921;BME280;5513;50.580;8.818;2023-09-18T09:13:43;98304.97;;;22.19;100.00
10921;BME280;5513;50.580;8.818;2023-09-18T09:16:33;98313.75;;;22.21;100.00
10921;BME280;5513;50.580;8.818;2023-09-18T09:19:28;98316.09;;;22.52;100.00
10921;BME280;5513;50.580;8.818;2023-09-18T09:22:20;98319.13;;;22.42;100.00
10921;BME280;5513;50.580;8.818;2023-09-18T09:25:24;98297.00;;;22.53;100.00
10921;BME280;5513;50.580;8.818;2023-09-18T09:28:12;98285.69;;;22.43;100.00
10921;BME280;5513;50.580;8.818;2023-09-18T09:31:00;98291.25;;;22.14;100.00
10921;BME280;5513;50.580;8.818;2023-09-18T09:33:52;98304.81;;;22.20;100.00
10921;BME280;5513;50.580;8.818;2023-09-18T09:36:51;98292.31;;;22.41;100.00
10921;BME280;5513;50.580;8.818;2023-09-18T09:39:49;98292.31;;;22.41;100.00
10921;BME280;5513;50.580;8.818;2023-09-18T09:42:38;98300.22;;;22.42;100.00
10921;BME280;5513;50.580;8.818;2023-09-18T09:45:27;98310.38;;;22.40;100.00
10921;BME280;5513;50.580;8.818;2023-09-18T09:48:16;98308.97;;;22.44;100.00
10921;BME280;5513;50.580;8.818;2023-09-18T09:51:04;98310.06;;;22.78;100.00
10921;BME280;5513;50.580;8.818;2023-09-18T09:53:52;98309.41;;;23.04;100.00
10921;BME280;5513;50.580;8.818;2023-09-18T09:56:44;98301.50;;;23.02;100.00
10921;BME280;5513;50.580;8.818;2023-09-18T09:59:31;98313.41;;;23.08;100.00
10921;BME280;5513;50.580;8.818;2023-09-18T10:02:20;98329.63;;;23.08;100.00
10921;BME280;5513;50.580;8.818;2023-09-18T10:05:08;98331.84;;;22.98;100.00
10921;BME280;5513;50.580;8.818;2023-09-18T10:08:00;98335.41;;;23.05;100.00
10921;BME280;5513;50.580;8.818;2023-09-18T10:10:50;98339.06;;;22.69;100.00
10921;BME280;5513;50.580;8.818;2023-09-18T10:13:41;98347.94;;;22.63;100.00
10921;BME280;5513;50.580;8.818;2023-09-18T10:16:30;98344.88;;;22.45;100.00
10921;BME280;5513;50.580;8.818;2023-09-18T10:19:27;98342.34;;;22.65;100.00
10921;BME280;5513;50.580;8.818;2023-09-18T10:22:21;98339.53;;;22.51;100.00
10921;BME280;5513;50.580;8.818;2023-09-18T10:25:14;98332.56;;;22.64;100.00
10921;BME280;5513;50.580;8.818;2023-09-18T10:28:04;98338.31;;;22.54;100.00
10921;BME280;5513;50.580;8.818;2023-09-18T10:30:55;98314.28;;;22.59;100.00
10921;BME280;5513;50.580;8.818;2023-09-18T10:33:43;98305.09;;;22.81;100.00
10921;BME280;5513;50.580;8.818;2023-09-18T10:36:31;98308.31;;;22.92;100.00
10921;BME280;5513;50.580;8.818;2023-09-18T10:39:20;98323.03;;;23.24;100.00
10921;BME280;5513;50.580;8.818;2023-09-18T10:42:12;98323.13;;;23.02;100.00
10921;BME280;5513;50.580;8.818;2023-09-18T10:45:00;98331.50;;;23.14;100.00
10921;BME280;5513;50.580;8.818;2023-09-18T10:47:50;98331.66;;;23.40;100.00
10921;BME280;5513;50.580;8.818;2023-09-18T10:50:38;98338.94;;;23.40;100.00
10921;BME280;5513;50.580;8.818;2023-09-18T10:53:26;98325.41;;;23.40;100.00
10921;BME280;5513;50.580;8.818;2023-09-18T10:56:14;98310.25;;;23.39;100.00
10921;BME280;5513;50.580;8.818;2023-09-18T10:59:07;98309.56;;;23.30;100.00
10921;BME280;5513;50.580;8.818;2023-09-18T11:01:54;98314.34;;;23.35;100.00
10921;BME280;5513;50.580;8.818;2023-09-18T11:04:41;98298.03;;;23.15;100.00
10921;BME280;5513;50.580;8.818;2023-09-18T11:07:28;98298.03;;;23.15;100.00
10921;BME280;5513;50.580;8.818;2023-09-18T11:10:25;98295.78;;;23.19;100.00
10921;BME280;5513;50.580;8.818;2023-09-18T11:13:28;98313.59;;;23.48;100.00
10921;BME280;5513;50.580;8.818;2023-09-18T11:16:34;98304.94;;;23.24;100.00
10921;BME280;5513;50.580;8.818;2023-09-18T11:19:24;98306.13;;;23.08;100.00
10921;BME280;5513;50.580;8.818;2023-09-18T11:22:14;98304.38;;;23.35;100.00
10921;BME280;5513;50.580;8.818;2023-09-18T11:25:30;98296.41;;;23.62;100.00
10921;BME280;5513;50.580;8.818;2023-09-18T11:28:23;98307.59;;;24.13;100.00
10921;BME280;5513;50.580;8.818;2023-09-18T11:31:10;98312.75;;;24.02;100.00
10921;BME280;5513;50.580;8.818;2023-09-18T11:33:58;98318.19;;;23.95;100.00
10921;BME280;5513;50.580;8.818;2023-09-18T11:36:45;98333.56;;;23.53;100.00
10921;BME280;5513;50.580;8.818;2023-09-18T11:39:33;98334.09;;;23.29;100.00
10921;BME280;5513;50.580;8.818;2023-09-18T11:42:21;98335.97;;;23.28;100.00
10921;BME280;5513;50.580;8.818;2023-09-18T11:45:16;98335.56;;;23.31;100.00
10921;BME280;5513;50.580;8.818;2023-09-18T11:48:05;98336.75;;;23.22;100.00
10921;BME280;5513;50.580;8.818;2023-09-18T11:50:56;98338.78;;;23.13;100.00
10921;BME280;5513;50.580;8.818;2023-09-18T11:53:43;98344.44;;;23.25;100.00
10921;BME280;5513;50.580;8.818;2023-09-18T11:56:31;98339.97;;;23.39;100.00
10921;BME280;5513;50.580;8.818;2023-09-18T11:59:33;98335.19;;;23.41;100.00
10921;BME280;5513;50.580;8.818;2023-09-18T12:02:30;98341.75;;;22.91;100.00
10921;BME280;5513;50.580;8.818;2023-09-18T12:05:21;98342.47;;;22.78;100.00
10921;BME280;5513;50.580;8.818;2023-09-18T12:08:13;98334.50;;;22.70;100.00
10921;BME280;5513;50.580;8.818;2023-09-18T12:11:04;98327.78;;;22.87;100.00
10921;BME280;5513;50.580;8.818;2023-09-18T12:13:52;98320.06;;;23.12;100.00
10921;BME280;5513;50.580;8.818;2023-09-18T12:16:39;98323.91;;;22.96;100.00
10921;BME280;5513;50.580;8.818;2023-09-18T12:19:26;98324.94;;;22.95;100.00
10921;BME280;5513;50.580;8.818;2023-09-18T12:22:13;98345.00;;;23.14;100.00
10921;BME280;5513;50.580;8.818;2023-09-18T12:25:13;98334.47;;;23.19;100.00
10921;BME280;5513;50.580;8.818;2023-09-18T12:28:02;98336.63;;;23.37;100.00
10921;BME280;5513;50.580;8.818;2023-09-18T12:30:49;98343.22;;;23.62;100.00
10921;BME280;5513;50.580;8.818;2023-09-18T12:33:42;98335.66;;;23.51;100.00
10921;BME280;5513;50.580;8.818;2023-09-18T12:36:30;98322.94;;;23.86;100.00
10921;BME280;5513;50.580;8.818;2023-09-18T12:39:17;98322.94;;;23.86;100.00
10921;BME280;5513;50.580;8.818;2023-09-18T12:42:06;98317.22;;;24.36;100.00
10921;BME280;5513;50.580;8.818;2023-09-18T12:44:53;98307.81;;;24.25;100.00
10921;BME280;5513;50.580;8.818;2023-09-18T12:47:41;98313.03;;;24.93;100.00
10921;BME280;5513;50.580;8.818;2023-09-18T12:50:29;98310.50;;;25.24;100.00
10921;BME280;5513;50.580;8.818;2023-09-18T12:53:22;98306.50;;;25.40;100.00
10921;BME280;5513;50.580;8.818;2023-09-18T12:56:10;98313.16;;;27.45;100.00
10921;BME280;5513;50.580;8.818;2023-09-18T12:58:59;98304.84;;;27.40;100.00
10921;BME280;5513;50.580;8.818;2023-09-18T13:01:51;98307.59;;;26.97;100.00
10921;BME280;5513;50.580;8.818;2023-09-18T13:04:39;98313.03;;;27.22;100.00
10921;BME280;5513;50.580;8.818;2023-09-18T13:07:27;98310.09;;;28.85;93.20
10921;BME280;5513;50.580;8.818;2023-09-18T13:10:14;98310.50;;;30.16;79.39
10921;BME280;5513;50.580;8.818;2023-09-18T13:13:01;98315.28;;;30.09;79.88
10921;BME280;5513;50.580;8.818;2023-09-18T13:15:51;98321.06;;;28.02;90.18
10921;BME280;5513;50.580;8.818;2023-09-18T13:18:41;98314.72;;;25.78;100.00
10921;BME280;5513;50.580;8.818;2023-09-18T13:21:27;98313.03;;;25.19;100.00
10921;BME280;5513;50.580;8.818;2023-09-18T13:24:25;98331.00;;;24.74;100.00
10921;BME280;5513;50.580;8.818;2023-09-18T13:27:13;98314.66;;;24.21;100.00
10921;BME280;5513;50.580;8.818;2023-09-18T13:29:59;98324.00;;;25.95;100.00
10921;BME280;5513;50.580;8.818;2023-09-18T13:33:03;98309.06;;;26.18;100.00
10921;BME280;5513;50.580;8.818;2023-09-18T13:35:51;98294.47;;;26.44;100.00
10921;BME280;5513;50.580;8.818;2023-09-18T13:38:41;98301.91;;;26.55;100.00
10921;BME280;5513;50.580;8.818;2023-09-18T13:41:29;98283.44;;;28.10;96.37
10921;BME280;5513;50.580;8.818;2023-09-18T13:44:16;98285.47;;;30.07;80.74
10921;BME280;5513;50.580;8.818;2023-09-18T13:47:07;98291.97;;;30.35;69.21
10921;BME280;5513;50.580;8.818;2023-09-18T13:49:55;98286.16;;;28.75;78.96
10921;BME280;5513;50.580;8.818;2023-09-18T13:52:45;98291.50;;;28.82;79.90
10921;BME280;5513;50.580;8.818;2023-09-18T13:55:32;98291.06;;;27.90;86.65
10921;BME280;5513;50.580;8.818;2023-09-18T13:58:18;98287.72;;;26.96;96.80
10921;BME280;5513;50.580;8.818;2023-09-18T14:01:06;98294.13;;;29.35;74.59
10921;BME280;5513;50.580;8.818;2023-09-18T14:03:54;98285.91;;;29.35;69.07
10921;BME280;5513;50.580;8.818;2023-09-18T14:06:42;98283.28;;;29.52;66.26
10921;BME280;5513;50.580;8.818;2023-09-18T14:09:29;98292.69;;;29.21;68.51
10921;BME280;5513;50.580;8.818;2023-09-18T14:12:16;98280.03;;;29.96;65.04
10921;BME280;5513;50.580;8.818;2023-09-18T14:15:04;98281.47;;;30.43;62.70
10921;BME280;5513;50.580;8.818;2023-09-18T14:17:51;98289.16;;;30.13;61.13
10921;BME280;5513;50.580;8.818;2023-09-18T14:20:38;98272.63;;;29.51;64.70
10921;BME280;5513;50.580;8.818;2023-09-18T14:23:28;98268.34;;;29.31;66.50
10921;BME280;5513;50.580;8.818;2023-09-18T14:26:14;98277.53;;;28.13;72.90
10921;BME280;5513;50.580;8.818;2023-09-18T14:29:06;98275.81;;;26.22;87.15
10921;BME280;5513;50.580;8.818;2023-09-18T14:31:53;98263.84;;;25.60;94.01
10921;BME280;5513;50.580;8.818;2023-09-18T14:34:40;98247.47;;;25.42;99.81
10921;BME280;5513;50.580;8.818;2023-09-18T14:37:27;98256.22;;;26.14;97.09
10921;BME280;5513;50.580;8.818;2023-09-18T14:40:15;98247.00;;;27.63;86.07
10921;BME280;5513;50.580;8.818;2023-09-18T14:43:03;98241.84;;;27.91;79.96
10921;BME280;5513;50.580;8.818;2023-09-18T14:45:52;98243.25;;;28.83;73.28
10921;BME280;5513;50.580;8.818;2023-09-18T14:48:41;98244.94;;;29.07;70.37
10921;BME280;5513;50.580;8.818;2023-09-18T14:51:28;98251.78;;;30.18;64.83
10921;BME280;5513;50.580;8.818;2023-09-18T14:54:15;98235.31;;;31.85;56.51
10921;BME280;5513;50.580;8.818;2023-09-18T14:57:04;98242.03;;;31.50;56.01
10921;BME280;5513;50.580;8.818;2023-09-18T14:59:51;98246.44;;;31.13;60.17